sensor_id;sensor_type;location;lat;lon;timestamp;pressure;altitude;pressure_sealevel;temperature
67758;BMP180;54562;47.620;18.786;2023-04-03T00:00:06;98379.20;;;4.40
67758;BMP180;54562;47.620;18.786;2023-04-03T00:03:15;98381.20;;;4.40
67758;BMP180;54562;47.620;18.786;2023-04-03T00:06:23;98377.80;;;4.40
67758;BMP180;54562;47.620;18.786;2023-04-03T00:09:31;98373.40;;;4.40
67758;BMP180;54562;47.620;18.786;2023-04-03T00:12:39;98374.20;;;4.40
67758;BMP180;54562;47.620;18.786;2023-04-03T00:15:48;98375.20;;;4.36
67758;BMP180;54562;47.620;18.786;2023-04-03T00:18:56;98374.60;;;4.30
67758;BMP180;54562;47.620;18.786;2023-04-03T00:22:05;98375.20;;;4.30
67758;BMP180;54562;47.620;18.786;2023-04-03T00:25:13;98378.60;;;4.30
67758;BMP180;54562;47.620;18.786;2023-04-03T00:28:22;98383.20;;;4.30
67758;BMP180;54562;47.620;18.786;2023-04-03T00:31:32;98384.40;;;4.30
67758;BMP180;54562;47.620;18.786;2023-04-03T00:34:40;98389.20;;;4.30
67758;BMP180;54562;47.620;18.786;2023-04-03T00:37:50;98390.80;;;4.30
67758;BMP180;54562;47.620;18.786;2023-04-03T00:40:58;98391.40;;;4.30
67758;BMP180;54562;47.620;18.786;2023-04-03T00:47:58;98391.60;;;4.20
67758;BMP180;54562;47.620;18.786;2023-04-03T00:51:11;98391.00;;;4.20
67758;BMP180;54562;47.620;18.786;2023-04-03T00:54:20;98391.60;;;4.20
67758;BMP180;54562;47.620;18.786;2023-04-03T00:57:30;98395.40;;;4.10
67758;BMP180;54562;47.620;18.786;2023-04-03T01:00:41;98396.20;;;4.00
67758;BMP180;54562;47.620;18.786;2023-04-03T01:03:51;98396.20;;;3.90
67758;BMP180;54562;47.620;18.786;2023-04-03T01:07:03;98398.20;;;3.90
67758;BMP180;54562;47.620;18.786;2023-04-03T01:10:15;98397.00;;;3.80
67758;BMP180;54562;47.620;18.786;2023-04-03T01:13:30;98397.20;;;3.80
67758;BMP180;54562;47.620;18.786;2023-04-03T01:16:38;98401.20;;;3.80
67758;BMP180;54562;47.620;18.786;2023-04-03T01:20:02;98403.40;;;3.80
67758;BMP180;54562;47.620;18.786;2023-04-03T01:23:37;98397.60;;;3.78
67758;BMP180;54562;47.620;18.786;2023-04-03T01:26:47;98403.80;;;3.76
67758;BMP180;54562;47.620;18.786;2023-04-03T01:29:56;98404.20;;;3.72
67758;BMP180;54562;47.620;18.786;2023-04-03T01:33:05;98406.60;;;3.70
67758;BMP180;54562;47.620;18.786;2023-04-03T01:36:18;98406.40;;;3.70
67758;BMP180;54562;47.620;18.786;2023-04-03T01:39:27;98408.60;;;3.70
67758;BMP180;54562;47.620;18.786;2023-04-03T01:42:35;98406.40;;;3.66
67758;BMP180;54562;47.620;18.786;2023-04-03T01:45:44;98409.40;;;3.60
67758;BMP180;54562;47.620;18.786;2023-04-03T01:48:53;98406.80;;;3.60
67758;BMP180;54562;47.620;18.786;2023-04-03T01:52:01;98409.00;;;3.60
67758;BMP180;54562;47.620;18.786;2023-04-03T01:55:10;98410.20;;;3.60
67758;BMP180;54562;47.620;18.786;2023-04-03T01:58:18;98414.60;;;3.60
67758;BMP180;54562;47.620;18.786;2023-04-03T02:01:26;98416.00;;;3.60
67758;BMP180;54562;47.620;18.786;2023-04-03T02:04:34;98411.60;;;3.60
67758;BMP180;54562;47.620;18.786;2023-04-03T02:07:42;98415.40;;;3.50
67758;BMP180;54562;47.620;18.786;2023-04-03T02:10:52;98415.20;;;3.50
67758;BMP180;54562;47.620;18.786;2023-04-03T02:14:03;98415.20;;;3.40
67758;BMP180;54562;47.620;18.786;2023-04-03T02:17:11;98419.60;;;3.40
67758;BMP180;54562;47.620;18.786;2023-04-03T02:20:21;98422.80;;;3.30
67758;BMP180;54562;47.620;18.786;2023-04-03T02:23:29;98426.60;;;3.30
67758;BMP180;54562;47.620;18.786;2023-04-03T02:26:37;98422.60;;;3.20
67758;BMP180;54562;47.620;18.786;2023-04-03T02:29:45;98422.40;;;3.14
67758;BMP180;54562;47.620;18.786;2023-04-03T02:32:53;98422.80;;;3.10
67758;BMP180;54562;47.620;18.786;2023-04-03T02:36:02;98423.20;;;3.02
67758;BMP180;54562;47.620;18.786;2023-04-03T02:39:11;98428.00;;;3.00
67758;BMP180;54562;47.620;18.786;2023-04-03T02:42:18;98432.00;;;2.92
67758;BMP180;54562;47.620;18.786;2023-04-03T02:45:27;98433.60;;;2.90
67758;BMP180;54562;47.620;18.786;2023-04-03T02:48:36;98441.00;;;2.90
67758;BMP180;54562;47.620;18.786;2023-04-03T02:51:44;98442.60;;;2.80
67758;BMP180;54562;47.620;18.786;2023-04-03T02:54:52;98439.60;;;2.80
67758;BMP180;54562;47.620;18.786;2023-04-03T02:58:00;98439.40;;;2.80
67758;BMP180;54562;47.620;18.786;2023-04-03T03:01:10;98440.20;;;2.72
67758;BMP180;54562;47.620;18.786;2023-04-03T03:04:20;98436.60;;;2.70
67758;BMP180;54562;47.620;18.786;2023-04-03T03:07:28;98446.00;;;2.64
67758;BMP180;54562;47.620;18.786;2023-04-03T03:10:37;98442.60;;;2.60
67758;BMP180;54562;47.620;18.786;2023-04-03T03:13:47;98442.60;;;2.50
67758;BMP180;54562;47.620;18.786;2023-04-03T03:16:55;98443.60;;;2.46
67758;BMP180;54562;47.620;18.786;2023-04-03T03:20:03;98441.20;;;2.40
67758;BMP180;54562;47.620;18.786;2023-04-03T03:23:11;98442.80;;;2.30
67758;BMP180;54562;47.620;18.786;2023-04-03T03:26:19;98442.40;;;2.20
67758;BMP180;54562;47.620;18.786;2023-04-03T03:29:29;98437.60;;;2.20
67758;BMP180;54562;47.620;18.786;2023-04-03T03:32:37;98438.80;;;2.10
67758;BMP180;54562;47.620;18.786;2023-04-03T03:35:46;98437.20;;;2.00
67758;BMP180;54562;47.620;18.786;2023-04-03T03:38:54;98437.60;;;2.00
67758;BMP180;54562;47.620;18.786;2023-04-03T03:42:02;98441.60;;;1.94
67758;BMP180;54562;47.620;18.786;2023-04-03T03:45:12;98439.80;;;1.90
67758;BMP180;54562;47.620;18.786;2023-04-03T03:48:21;98443.80;;;1.90
67758;BMP180;54562;47.620;18.786;2023-04-03T03:51:30;98443.60;;;1.88
67758;BMP180;54562;47.620;18.786;2023-04-03T03:54:38;98444.00;;;1.80
67758;BMP180;54562;47.620;18.786;2023-04-03T03:57:46;98443.40;;;1.80
67758;BMP180;54562;47.620;18.786;2023-04-03T04:00:54;98440.00;;;1.80
67758;BMP180;54562;47.620;18.786;2023-04-03T04:04:03;98449.20;;;1.80
67758;BMP180;54562;47.620;18.786;2023-04-03T04:07:11;98446.80;;;1.80
67758;BMP180;54562;47.620;18.786;2023-04-03T04:10:20;98438.80;;;1.74
67758;BMP180;54562;47.620;18.786;2023-04-03T04:13:28;98441.20;;;1.70
67758;BMP180;54562;47.620;18.786;2023-04-03T04:16:36;98440.20;;;1.70
67758;BMP180;54562;47.620;18.786;2023-04-03T04:19:45;98434.00;;;1.62
67758;BMP180;54562;47.620;18.786;2023-04-03T04:22:53;98426.40;;;1.60
67758;BMP180;54562;47.620;18.786;2023-04-03T04:26:01;98419.80;;;1.60
67758;BMP180;54562;47.620;18.786;2023-04-03T04:29:13;98420.60;;;1.56
67758;BMP180;54562;47.620;18.786;2023-04-03T04:32:21;98425.00;;;1.50
67758;BMP180;54562;47.620;18.786;2023-04-03T04:35:31;98426.20;;;1.50
67758;BMP180;54562;47.620;18.786;2023-04-03T04:38:37;98433.00;;;1.50
67758;BMP180;54562;47.620;18.786;2023-04-03T04:41:47;98442.80;;;1.50
67758;BMP180;54562;47.620;18.786;2023-04-03T04:44:57;98454.60;;;1.50
67758;BMP180;54562;47.620;18.786;2023-04-03T04:48:06;98459.00;;;1.50
67758;BMP180;54562;47.620;18.786;2023-04-03T04:51:15;98462.00;;;1.50
67758;BMP180;54562;47.620;18.786;2023-04-03T04:54:23;98459.20;;;1.50
67758;BMP180;54562;47.620;18.786;2023-04-03T04:57:32;98455.60;;;1.50
67758;BMP180;54562;47.620;18.786;2023-04-03T05:00:40;98462.80;;;1.50
67758;BMP180;54562;47.620;18.786;2023-04-03T05:03:50;98454.20;;;1.60
67758;BMP180;54562;47.620;18.786;2023-04-03T05:06:58;98452.20;;;1.60
67758;BMP180;54562;47.620;18.786;2023-04-03T05:10:09;98453.40;;;1.60
67758;BMP180;54562;47.620;18.786;2023-04-03T05:13:17;98456.80;;;1.70
67758;BMP180;54562;47.620;18.786;2023-04-03T05:16:25;98456.80;;;1.74
67758;BMP180;54562;47.620;18.786;2023-04-03T05:19:34;98451.60;;;1.90
67758;BMP180;54562;47.620;18.786;2023-04-03T05:22:42;98454.00;;;2.00
67758;BMP180;54562;47.620;18.786;2023-04-03T05:25:50;98466.80;;;2.10
67758;BMP180;54562;47.620;18.786;2023-04-03T05:28:58;98468.40;;;2.20
67758;BMP180;54562;47.620;18.786;2023-04-03T05:32:07;98466.80;;;2.30
67758;BMP180;54562;47.620;18.786;2023-04-03T05:35:18;98471.20;;;2.40
67758;BMP180;54562;47.620;18.786;2023-04-03T05:38:28;98474.20;;;2.60
67758;BMP180;54562;47.620;18.786;2023-04-03T05:41:37;98479.80;;;2.68
67758;BMP180;54562;47.620;18.786;2023-04-03T05:44:46;98480.00;;;2.76
67758;BMP180;54562;47.620;18.786;2023-04-03T05:47:57;98482.20;;;2.80
67758;BMP180;54562;47.620;18.786;2023-04-03T05:51:06;98479.60;;;2.90
67758;BMP180;54562;47.620;18.786;2023-04-03T05:54:20;98484.20;;;2.90
67758;BMP180;54562;47.620;18.786;2023-04-03T05:57:29;98485.80;;;3.00
67758;BMP180;54562;47.620;18.786;2023-04-03T06:00:38;98486.60;;;3.02
67758;BMP180;54562;47.620;18.786;2023-04-03T06:03:47;98493.00;;;3.20
67758;BMP180;54562;47.620;18.786;2023-04-03T06:06:56;98498.60;;;3.30
67758;BMP180;54562;47.620;18.786;2023-04-03T06:10:07;98495.80;;;3.50
67758;BMP180;54562;47.620;18.786;2023-04-03T06:13:15;98498.40;;;3.60
67758;BMP180;54562;47.620;18.786;2023-04-03T06:16:23;98499.20;;;3.70
67758;BMP180;54562;47.620;18.786;2023-04-03T06:19:31;98495.60;;;3.70
67758;BMP180;54562;47.620;18.786;2023-04-03T06:22:40;98485.20;;;3.80
67758;BMP180;54562;47.620;18.786;2023-04-03T06:25:49;98479.40;;;3.90
67758;BMP180;54562;47.620;18.786;2023-04-03T06:28:58;98484.60;;;4.00
67758;BMP180;54562;47.620;18.786;2023-04-03T06:32:07;98487.40;;;4.10
67758;BMP180;54562;47.620;18.786;2023-04-03T06:35:16;98484.60;;;4.24
67758;BMP180;54562;47.620;18.786;2023-04-03T06:38:24;98483.40;;;4.40
67758;BMP180;54562;47.620;18.786;2023-04-03T06:41:32;98488.40;;;4.52
67758;BMP180;54562;47.620;18.786;2023-04-03T06:44:42;98486.20;;;4.62
67758;BMP180;54562;47.620;18.786;2023-04-03T06:47:51;98494.00;;;4.60
67758;BMP180;54562;47.620;18.786;2023-04-03T06:50:59;98497.20;;;4.54
67758;BMP180;54562;47.620;18.786;2023-04-03T06:54:08;98501.20;;;4.60
67758;BMP180;54562;47.620;18.786;2023-04-03T06:57:16;98502.60;;;4.68
67758;BMP180;54562;47.620;18.786;2023-04-03T07:00:26;98504.40;;;4.80
67758;BMP180;54562;47.620;18.786;2023-04-03T07:03:35;98506.00;;;4.90
67758;BMP180;54562;47.620;18.786;2023-04-03T07:06:43;98507.20;;;5.10
67758;BMP180;54562;47.620;18.786;2023-04-03T07:09:52;98502.20;;;5.20
67758;BMP180;54562;47.620;18.786;2023-04-03T07:13:01;98508.60;;;5.22
67758;BMP180;54562;47.620;18.786;2023-04-03T07:16:10;98506.20;;;5.40
67758;BMP180;54562;47.620;18.786;2023-04-03T07:19:19;98512.00;;;5.60
67758;BMP180;54562;47.620;18.786;2023-04-03T07:22:27;98517.00;;;5.80
67758;BMP180;54562;47.620;18.786;2023-04-03T07:25:36;98513.40;;;5.80
67758;BMP180;54562;47.620;18.786;2023-04-03T07:28:44;98519.60;;;5.80
67758;BMP180;54562;47.620;18.786;2023-04-03T07:31:53;98513.40;;;5.80
67758;BMP180;54562;47.620;18.786;2023-04-03T07:35:04;98519.60;;;5.80
67758;BMP180;54562;47.620;18.786;2023-04-03T07:38:14;98521.00;;;5.80
67758;BMP180;54562;47.620;18.786;2023-04-03T07:41:23;98525.20;;;5.80
67758;BMP180;54562;47.620;18.786;2023-04-03T07:44:33;98530.40;;;5.90
67758;BMP180;54562;47.620;18.786;2023-04-03T07:47:42;98536.80;;;5.90
67758;BMP180;54562;47.620;18.786;2023-04-03T07:50:51;98537.60;;;6.00
67758;BMP180;54562;47.620;18.786;2023-04-03T07:53:59;98535.00;;;6.00
67758;BMP180;54562;47.620;18.786;2023-04-03T07:57:07;98537.20;;;6.10
67758;BMP180;54562;47.620;18.786;2023-04-03T08:00:17;98543.20;;;6.20
67758;BMP180;54562;47.620;18.786;2023-04-03T08:03:26;98536.80;;;6.30
67758;BMP180;54562;47.620;18.786;2023-04-03T08:06:35;98540.60;;;6.50
67758;BMP180;54562;47.620;18.786;2023-04-03T08:09:53;98535.60;;;6.60
67758;BMP180;54562;47.620;18.786;2023-04-03T08:13:02;98533.60;;;6.76
67758;BMP180;54562;47.620;18.786;2023-04-03T08:16:15;98535.00;;;6.92
67758;BMP180;54562;47.620;18.786;2023-04-03T08:19:24;98536.60;;;7.00
67758;BMP180;54562;47.620;18.786;2023-04-03T08:22:32;98534.80;;;7.00
67758;BMP180;54562;47.620;18.786;2023-04-03T08:25:43;98528.60;;;7.04
67758;BMP180;54562;47.620;18.786;2023-04-03T08:28:52;98535.60;;;7.10
67758;BMP180;54562;47.620;18.786;2023-04-03T08:32:00;98532.20;;;7.10
67758;BMP180;54562;47.620;18.786;2023-04-03T08:35:11;98525.80;;;7.12
67758;BMP180;54562;47.620;18.786;2023-04-03T08:38:20;98529.00;;;7.20
67758;BMP180;54562;47.620;18.786;2023-04-03T08:41:35;98531.80;;;7.30
67758;BMP180;54562;47.620;18.786;2023-04-03T08:44:57;98531.40;;;7.40
67758;BMP180;54562;47.620;18.786;2023-04-03T08:48:14;98533.80;;;7.48
67758;BMP180;54562;47.620;18.786;2023-04-03T08:51:25;98531.40;;;7.50
67758;BMP180;54562;47.620;18.786;2023-04-03T08:54:40;98523.20;;;7.50
67758;BMP180;54562;47.620;18.786;2023-04-03T08:58:03;98523.80;;;7.62
67758;BMP180;54562;47.620;18.786;2023-04-03T09:01:23;98526.20;;;7.90
67758;BMP180;54562;47.620;18.786;2023-04-03T09:04:34;98523.60;;;8.10
67758;BMP180;54562;47.620;18.786;2023-04-03T09:07:49;98520.00;;;8.30
67758;BMP180;54562;47.620;18.786;2023-04-03T09:11:19;98516.00;;;8.30
67758;BMP180;54562;47.620;18.786;2023-04-03T09:14:39;98515.80;;;8.70
67758;BMP180;54562;47.620;18.786;2023-04-03T09:18:02;98521.40;;;9.10
67758;BMP180;54562;47.620;18.786;2023-04-03T09:21:23;98516.40;;;9.48
67758;BMP180;54562;47.620;18.786;2023-04-03T09:24:35;98517.00;;;9.92
67758;BMP180;54562;47.620;18.786;2023-04-03T09:27:44;98519.40;;;10.10
67758;BMP180;54562;47.620;18.786;2023-04-03T09:30:51;98528.40;;;10.34
67758;BMP180;54562;47.620;18.786;2023-04-03T09:34:05;98532.60;;;10.40
67758;BMP180;54562;47.620;18.786;2023-04-03T09:40:39;98526.20;;;9.90
67758;BMP180;54562;47.620;18.786;2023-04-03T09:43:55;98526.40;;;9.70
67758;BMP180;54562;47.620;18.786;2023-04-03T09:47:25;98522.00;;;9.50
67758;BMP180;54562;47.620;18.786;2023-04-03T09:50:36;98511.20;;;9.66
67758;BMP180;54562;47.620;18.786;2023-04-03T09:53:46;98510.80;;;9.70
67758;BMP180;54562;47.620;18.786;2023-04-03T09:56:56;98516.40;;;9.60
67758;BMP180;54562;47.620;18.786;2023-04-03T10:00:21;98512.40;;;9.50
67758;BMP180;54562;47.620;18.786;2023-04-03T10:03:34;98515.20;;;9.40
67758;BMP180;54562;47.620;18.786;2023-04-03T10:06:45;98512.00;;;9.30
67758;BMP180;54562;47.620;18.786;2023-04-03T10:10:01;98516.80;;;9.20
67758;BMP180;54562;47.620;18.786;2023-04-03T10:13:13;98515.20;;;9.10
67758;BMP180;54562;47.620;18.786;2023-04-03T10:16:37;98518.80;;;9.00
67758;BMP180;54562;47.620;18.786;2023-04-03T10:19:52;98520.60;;;9.00
67758;BMP180;54562;47.620;18.786;2023-04-03T10:23:17;98526.40;;;9.00
67758;BMP180;54562;47.620;18.786;2023-04-03T10:26:39;98522.40;;;9.00
67758;BMP180;54562;47.620;18.786;2023-04-03T10:29:59;98515.80;;;9.10
67758;BMP180;54562;47.620;18.786;2023-04-03T10:33:30;98514.40;;;9.20
67758;BMP180;54562;47.620;18.786;2023-04-03T10:36:48;98514.60;;;9.26
67758;BMP180;54562;47.620;18.786;2023-04-03T10:40:19;98515.00;;;9.20
67758;BMP180;54562;47.620;18.786;2023-04-03T10:43:40;98520.00;;;9.20
67758;BMP180;54562;47.620;18.786;2023-04-03T10:46:55;98524.60;;;9.00
67758;BMP180;54562;47.620;18.786;2023-04-03T10:50:29;98521.20;;;9.00
67758;BMP180;54562;47.620;18.786;2023-04-03T10:53:47;98519.60;;;9.00
67758;BMP180;54562;47.620;18.786;2023-04-03T10:57:03;98524.20;;;8.90
67758;BMP180;54562;47.620;18.786;2023-04-03T11:00:24;98516.40;;;8.90
67758;BMP180;54562;47.620;18.786;2023-04-03T11:03:38;98517.60;;;8.90
67758;BMP180;54562;47.620;18.786;2023-04-03T11:06:53;98518.60;;;8.80
67758;BMP180;54562;47.620;18.786;2023-04-03T11:10:14;98516.60;;;8.82
67758;BMP180;54562;47.620;18.786;2023-04-03T11:13:34;98517.00;;;8.82
67758;BMP180;54562;47.620;18.786;2023-04-03T11:16:48;98514.80;;;8.80
67758;BMP180;54562;47.620;18.786;2023-04-03T11:20:08;98510.20;;;8.80
67758;BMP180;54562;47.620;18.786;2023-04-03T11:23:25;98513.60;;;8.80
67758;BMP180;54562;47.620;18.786;2023-04-03T11:26:45;98513.80;;;8.90
67758;BMP180;54562;47.620;18.786;2023-04-03T11:29:56;98507.40;;;8.90
67758;BMP180;54562;47.620;18.786;2023-04-03T11:33:24;98511.20;;;8.90
67758;BMP180;54562;47.620;18.786;2023-04-03T11:36:42;98509.60;;;8.90
67758;BMP180;54562;47.620;18.786;2023-04-03T11:39:58;98506.60;;;8.82
67758;BMP180;54562;47.620;18.786;2023-04-03T11:43:22;98501.00;;;8.80
67758;BMP180;54562;47.620;18.786;2023-04-03T11:46:54;98493.00;;;8.82
67758;BMP180;54562;47.620;18.786;2023-04-03T11:50:08;98495.20;;;8.80
67758;BMP180;54562;47.620;18.786;2023-04-03T11:53:38;98495.80;;;8.90
67758;BMP180;54562;47.620;18.786;2023-04-03T11:56:47;98487.20;;;8.90
67758;BMP180;54562;47.620;18.786;2023-04-03T11:59:55;98481.60;;;8.90
67758;BMP180;54562;47.620;18.786;2023-04-03T12:03:07;98483.80;;;9.00
67758;BMP180;54562;47.620;18.786;2023-04-03T12:10:30;98471.80;;;9.20
67758;BMP180;54562;47.620;18.786;2023-04-03T12:13:41;98478.00;;;9.30
67758;BMP180;54562;47.620;18.786;2023-04-03T12:16:51;98474.20;;;9.40
67758;BMP180;54562;47.620;18.786;2023-04-03T12:19:58;98477.00;;;9.50
67758;BMP180;54562;47.620;18.786;2023-04-03T12:23:31;98475.20;;;9.50
67758;BMP180;54562;47.620;18.786;2023-04-03T12:26:46;98470.80;;;9.50
67758;BMP180;54562;47.620;18.786;2023-04-03T12:30:22;98474.80;;;9.40
67758;BMP180;54562;47.620;18.786;2023-04-03T12:33:50;98473.20;;;9.30
67758;BMP180;54562;47.620;18.786;2023-04-03T12:37:14;98475.20;;;9.24
67758;BMP180;54562;47.620;18.786;2023-04-03T12:40:33;98469.00;;;9.20
67758;BMP180;54562;47.620;18.786;2023-04-03T12:44:06;98468.60;;;9.20
67758;BMP180;54562;47.620;18.786;2023-04-03T12:47:34;98469.80;;;9.30
67758;BMP180;54562;47.620;18.786;2023-04-03T12:50:47;98459.40;;;9.40
67758;BMP180;54562;47.620;18.786;2023-04-03T12:54:03;98458.00;;;9.50
67758;BMP180;54562;47.620;18.786;2023-04-03T12:57:18;98456.80;;;9.50
67758;BMP180;54562;47.620;18.786;2023-04-03T13:00:34;98456.60;;;9.50
67758;BMP180;54562;47.620;18.786;2023-04-03T13:03:49;98451.80;;;9.40
67758;BMP180;54562;47.620;18.786;2023-04-03T13:06:59;98444.80;;;9.30
67758;BMP180;54562;47.620;18.786;2023-04-03T13:10:19;98439.80;;;9.30
67758;BMP180;54562;47.620;18.786;2023-04-03T13:13:27;98444.20;;;9.30
67758;BMP180;54562;47.620;18.786;2023-04-03T13:16:35;98445.80;;;9.30
67758;BMP180;54562;47.620;18.786;2023-04-03T13:19:48;98446.40;;;9.22
67758;BMP180;54562;47.620;18.786;2023-04-03T13:23:02;98445.00;;;9.20
67758;BMP180;54562;47.620;18.786;2023-04-03T13:26:12;98444.40;;;9.10
67758;BMP180;54562;47.620;18.786;2023-04-03T13:29:28;98434.80;;;9.00
67758;BMP180;54562;47.620;18.786;2023-04-03T13:32:37;98430.80;;;8.90
67758;BMP180;54562;47.620;18.786;2023-04-03T13:35:46;98438.40;;;8.90
67758;BMP180;54562;47.620;18.786;2023-04-03T13:39:05;98431.80;;;8.90
67758;BMP180;54562;47.620;18.786;2023-04-03T13:42:24;98426.60;;;8.90
67758;BMP180;54562;47.620;18.786;2023-04-03T13:45:34;98425.40;;;8.80
67758;BMP180;54562;47.620;18.786;2023-04-03T13:48:46;98426.40;;;8.80
67758;BMP180;54562;47.620;18.786;2023-04-03T13:51:55;98424.60;;;8.70
67758;BMP180;54562;47.620;18.786;2023-04-03T13:55:23;98426.80;;;8.60
67758;BMP180;54562;47.620;18.786;2023-04-03T13:58:34;98428.80;;;8.50
67758;BMP180;54562;47.620;18.786;2023-04-03T14:01:49;98424.40;;;8.40
67758;BMP180;54562;47.620;18.786;2023-04-03T14:05:00;98426.60;;;8.34
67758;BMP180;54562;47.620;18.786;2023-04-03T14:08:10;98424.00;;;8.30
67758;BMP180;54562;47.620;18.786;2023-04-03T14:11:22;98424.00;;;8.30
67758;BMP180;54562;47.620;18.786;2023-04-03T14:14:35;98423.20;;;8.20
67758;BMP180;54562;47.620;18.786;2023-04-03T14:17:44;98429.40;;;8.10
67758;BMP180;54562;47.620;18.786;2023-04-03T14:20:53;98425.20;;;7.98
67758;BMP180;54562;47.620;18.786;2023-04-03T14:24:01;98422.60;;;7.80
67758;BMP180;54562;47.620;18.786;2023-04-03T14:27:18;98417.00;;;7.70
67758;BMP180;54562;47.620;18.786;2023-04-03T14:30:31;98423.60;;;7.70
67758;BMP180;54562;47.620;18.786;2023-04-03T14:33:40;98427.00;;;7.60
67758;BMP180;54562;47.620;18.786;2023-04-03T14:36:49;98431.80;;;7.60
67758;BMP180;54562;47.620;18.786;2023-04-03T14:40:02;98429.80;;;7.50
67758;BMP180;54562;47.620;18.786;2023-04-03T14:43:14;98429.60;;;7.50
67758;BMP180;54562;47.620;18.786;2023-04-03T14:46:29;98429.40;;;7.46
67758;BMP180;54562;47.620;18.786;2023-04-03T14:49:54;98432.60;;;7.40
67758;BMP180;54562;47.620;18.786;2023-04-03T14:53:04;98428.40;;;7.40
67758;BMP180;54562;47.620;18.786;2023-04-03T14:56:19;98429.00;;;7.32
67758;BMP180;54562;47.620;18.786;2023-04-03T14:59:30;98437.20;;;7.30
67758;BMP180;54562;47.620;18.786;2023-04-03T15:02:40;98439.00;;;7.30
67758;BMP180;54562;47.620;18.786;2023-04-03T15:05:50;98442.80;;;7.30
67758;BMP180;54562;47.620;18.786;2023-04-03T15:08:58;98449.20;;;7.30
67758;BMP180;54562;47.620;18.786;2023-04-03T15:12:08;98449.60;;;7.30
67758;BMP180;54562;47.620;18.786;2023-04-03T15:15:19;98446.80;;;7.30
67758;BMP180;54562;47.620;18.786;2023-04-03T15:18:32;98446.80;;;7.20
67758;BMP180;54562;47.620;18.786;2023-04-03T15:21:44;98445.00;;;7.20
67758;BMP180;54562;47.620;18.786;2023-04-03T15:24:52;98444.40;;;7.20
67758;BMP180;54562;47.620;18.786;2023-04-03T15:28:01;98443.20;;;7.20
67758;BMP180;54562;47.620;18.786;2023-04-03T15:31:10;98448.20;;;7.10
67758;BMP180;54562;47.620;18.786;2023-04-03T15:34:18;98449.20;;;7.10
67758;BMP180;54562;47.620;18.786;2023-04-03T15:37:28;98440.80;;;7.00
67758;BMP180;54562;47.620;18.786;2023-04-03T15:40:36;98433.80;;;7.00
67758;BMP180;54562;47.620;18.786;2023-04-03T15:43:45;98434.00;;;7.00
67758;BMP180;54562;47.620;18.786;2023-04-03T15:46:53;98436.80;;;6.90
67758;BMP180;54562;47.620;18.786;2023-04-03T15:50:02;98435.40;;;6.90
67758;BMP180;54562;47.620;18.786;2023-04-03T15:53:12;98440.60;;;6.84
67758;BMP180;54562;47.620;18.786;2023-04-03T15:56:21;98442.40;;;6.80
67758;BMP180;54562;47.620;18.786;2023-04-03T15:59:29;98437.60;;;6.70
67758;BMP180;54562;47.620;18.786;2023-04-03T16:02:39;98443.60;;;6.70
67758;BMP180;54562;47.620;18.786;2023-04-03T16:05:48;98444.20;;;6.64
67758;BMP180;54562;47.620;18.786;2023-04-03T16:08:57;98449.20;;;6.60
67758;BMP180;54562;47.620;18.786;2023-04-03T16:12:05;98449.80;;;6.60
67758;BMP180;54562;47.620;18.786;2023-04-03T16:15:14;98450.40;;;6.60
67758;BMP180;54562;47.620;18.786;2023-04-03T16:18:23;98444.00;;;6.50
67758;BMP180;54562;47.620;18.786;2023-04-03T16:21:31;98439.00;;;6.50
67758;BMP180;54562;47.620;18.786;2023-04-03T16:24:40;98435.80;;;6.40
67758;BMP180;54562;47.620;18.786;2023-04-03T16:27:48;98433.60;;;6.34
67758;BMP180;54562;47.620;18.786;2023-04-03T16:30:56;98429.20;;;6.30
67758;BMP180;54562;47.620;18.786;2023-04-03T16:34:05;98431.60;;;6.20
67758;BMP180;54562;47.620;18.786;2023-04-03T16:37:13;98431.00;;;6.20
67758;BMP180;54562;47.620;18.786;2023-04-03T16:40:21;98440.40;;;6.20
67758;BMP180;54562;47.620;18.786;2023-04-03T16:43:29;98451.60;;;6.14
67758;BMP180;54562;47.620;18.786;2023-04-03T16:46:38;98466.60;;;6.10
67758;BMP180;54562;47.620;18.786;2023-04-03T16:49:47;98472.40;;;6.10
67758;BMP180;54562;47.620;18.786;2023-04-03T16:52:55;98475.80;;;6.10
67758;BMP180;54562;47.620;18.786;2023-04-03T16:56:04;98477.40;;;6.10
67758;BMP180;54562;47.620;18.786;2023-04-03T16:59:12;98483.80;;;6.20
67758;BMP180;54562;47.620;18.786;2023-04-03T17:02:21;98483.60;;;6.20
67758;BMP180;54562;47.620;18.786;2023-04-03T17:05:31;98489.20;;;6.20
67758;BMP180;54562;47.620;18.786;2023-04-03T17:08:39;98490.40;;;6.14
67758;BMP180;54562;47.620;18.786;2023-04-03T17:11:47;98496.20;;;6.10
67758;BMP180;54562;47.620;18.786;2023-04-03T17:14:55;98507.60;;;6.10
67758;BMP180;54562;47.620;18.786;2023-04-03T17:18:05;98514.40;;;6.10
67758;BMP180;54562;47.620;18.786;2023-04-03T17:21:15;98522.40;;;6.10
67758;BMP180;54562;47.620;18.786;2023-04-03T17:24:25;98524.80;;;6.10
67758;BMP180;54562;47.620;18.786;2023-04-03T17:27:33;98534.80;;;6.02
67758;BMP180;54562;47.620;18.786;2023-04-03T17:30:41;98540.40;;;6.00
67758;BMP180;54562;47.620;18.786;2023-04-03T17:33:50;98549.80;;;6.00
67758;BMP180;54562;47.620;18.786;2023-04-03T17:36:58;98554.80;;;6.00
67758;BMP180;54562;47.620;18.786;2023-04-03T17:40:09;98567.40;;;5.94
67758;BMP180;54562;47.620;18.786;2023-04-03T17:43:20;98574.40;;;5.90
67758;BMP180;54562;47.620;18.786;2023-04-03T17:46:29;98580.00;;;5.90
67758;BMP180;54562;47.620;18.786;2023-04-03T17:49:41;98590.40;;;5.80
67758;BMP180;54562;47.620;18.786;2023-04-03T17:52:49;98596.00;;;5.80
67758;BMP180;54562;47.620;18.786;2023-04-03T17:55:57;98601.20;;;5.70
67758;BMP180;54562;47.620;18.786;2023-04-03T17:59:06;98613.60;;;5.70
67758;BMP180;54562;47.620;18.786;2023-04-03T18:02:15;98618.00;;;5.70
67758;BMP180;54562;47.620;18.786;2023-04-03T18:05:25;98624.60;;;5.64
67758;BMP180;54562;47.620;18.786;2023-04-03T18:08:36;98631.60;;;5.70
67758;BMP180;54562;47.620;18.786;2023-04-03T18:11:46;98635.40;;;5.70
67758;BMP180;54562;47.620;18.786;2023-04-03T18:14:55;98632.40;;;5.70
67758;BMP180;54562;47.620;18.786;2023-04-03T18:18:04;98645.60;;;5.70
67758;BMP180;54562;47.620;18.786;2023-04-03T18:21:14;98652.80;;;5.70
67758;BMP180;54562;47.620;18.786;2023-04-03T18:24:23;98659.20;;;5.70
67758;BMP180;54562;47.620;18.786;2023-04-03T18:27:34;98665.60;;;5.70
67758;BMP180;54562;47.620;18.786;2023-04-03T18:30:44;98669.80;;;5.70
67758;BMP180;54562;47.620;18.786;2023-04-03T18:33:53;98683.40;;;5.70